Alapaha, GA (31622)

1:38 PM EST on February 12, 2016 (GMT -0500)
Waterford | | Change Station
CLOSE
Current Station
Personal Weather Station
Location: Tifton, GA
Elevation: 361 ft
Nearby Weather Stations

Elev 361 ft 31.49 °N, 83.46 °W | Updated 33 seconds ago

Mostly Cloudy
Mostly Cloudy
67.6 °F
Feels Like 67.6 °F
N
1.8
Wind Variable Wind from SW
Gusts 2.5 mph

Today
High -- | Low -- °F
--% Chance of Precip.
Yesterday
High -- | Low -- °F
Precip. -- in
Pressure 30.10 in
Visibility 10.0 miles
Clouds Mostly Cloudy 3300 ft
Mostly Cloudy 3900 ft
Dew Point 51 °F
Humidity 56%
Rainfall 0.00 in
Snow Depth Not available.
7:17 AM 6:17 PM
Waxing Crescent, 22% visible
METAR KTMA 121810Z AUTO 28013G18KT 10SM BKN033 BKN039 20/13 A3010 RMK AO2 T01970125
Pressure 30.10 in
Visibility 10.0 miles
Clouds Mostly Cloudy 3300 ft
Mostly Cloudy 3900 ft
Dew Point 51 °F
Humidity 56%
Rainfall 0.00 in
Snow Depth Not available.
7:17 AM 6:17 PM
Waxing Crescent, 22% visible
METAR KTMA 121810Z AUTO 28013G18KT 10SM BKN033 BKN039 20/13 A3010 RMK AO2 T01970125

10-Day Weather Forecast

Almanac

Astronomy

Feb. 12, 2016 Rise Set
Actual Time
Civil Twilight
Nautical Twilight
Astronomical Twilight
Moon
Length of Visible Light
Length of Day
Tomorrow will be .
, % of the Moon is Illuminated

Today's Extremes

State Highs State Lows

Community

WunderPhotos

Upload Photos

1,892,366 photos uploaded!

WunderBlog® & News

Nearby

Air Quality

  Air Quality AQ Index Pollutant
Not available.

Snow Depth

Station Depth Elevation

Earthquake Activity

City Distance Mag. Time & Date
Minimum magnitude displayed is 2.5.

Coastal Water Temperatures

Place Temperature

Stations

Nearby Weather Stations

Station Location Temp. Windchill Dew Point Humidity Wind Precip. Elev Updated Type
                   

Watches & Warnings

There are currently no watches in effect.